Time;durP1;ratioP1;P1;durP2;ratioP2;P2;SDS_P1;SDS_P2;PMS_P1;PMS_P2;Temp;Humidity;BMP_temperature;BMP_pressure;BME280_temperature;BME280_humidity;BME280_pressure;Samples;Min_cycle;Max_cycle;Signal;HPM_P1;HPM_P2
2022/07/13 00:00:57;;;;;;;1.73;1.50;;;;;;;16.25;100.00;97093.25;5053230;27;105552;-60
2022/07/13 00:03:23;;;;;;;2.63;1.40;;;;;;;16.64;100.00;97092.44;5053784;27;101907;-61
2022/07/13 00:05:50;;;;;;;2.27;1.40;;;;;;;16.83;100.00;97089.97;5056242;27;105245;-61
2022/07/13 00:08:19;;;;;;;3.17;1.37;;;;;;;16.78;100.00;97090.78;5053624;27;101752;-61
2022/07/13 00:10:46;;;;;;;2.40;1.53;;;;;;;16.72;100.00;97099.94;5053650;27;105348;-61
2022/07/13 00:13:13;;;;;;;1.70;1.50;;;;;;;16.48;100.00;97098.91;5052401;27;105329;-60
2022/07/13 00:15:41;;;;;;;1.73;1.30;;;;;;;16.33;100.00;97096.19;5053321;27;102284;-60
2022/07/13 00:18:07;;;;;;;1.63;1.53;;;;;;;16.53;100.00;97090.03;5053815;27;105616;-61
2022/07/13 00:20:34;;;;;;;1.60;1.50;;;;;;;16.68;100.00;97087.34;5052753;27;105436;-60
2022/07/13 00:23:01;;;;;;;1.50;1.40;;;;;;;16.84;100.00;97089.69;5053632;27;101887;-61
2022/07/13 00:25:30;;;;;;;1.67;1.50;;;;;;;16.63;100.00;97087.34;5053338;27;105485;-61
2022/07/13 00:27:57;;;;;;;1.60;1.50;;;;;;;16.47;100.00;97083.84;5056039;27;105290;-61
2022/07/13 00:30:24;;;;;;;1.37;1.27;;;;;;;16.78;100.00;97084.63;5053371;27;103913;-61
2022/07/13 00:32:51;;;;;;;2.63;1.30;;;;;;;16.98;100.00;97084.56;5052871;27;105357;-61
2022/07/13 00:35:18;;;;;;;1.40;1.30;;;;;;;17.06;100.00;97084.00;5052985;27;101966;-60
2022/07/13 00:37:46;;;;;;;1.37;1.27;;;;;;;16.73;100.00;97077.38;5053214;27;105703;-61
2022/07/13 00:40:13;;;;;;;1.30;1.20;;;;;;;16.55;100.00;97085.19;5052577;27;105952;-60
2022/07/13 00:42:42;;;;;;;1.87;1.30;;;;;;;16.12;100.00;97075.78;5053183;27;102377;-60
2022/07/13 00:45:10;;;;;;;1.87;1.20;;;;;;;16.13;100.00;97076.59;5053097;27;103741;-60
2022/07/13 00:47:38;;;;;;;1.93;1.40;;;;;;;16.45;100.00;97071.78;5052659;27;103827;-60
2022/07/13 00:50:08;;;;;;;1.53;1.43;;;;;;;16.62;100.00;97072.31;5056332;27;101943;-61
2022/07/13 00:52:36;;;;;;;1.87;1.47;;;;;;;16.15;100.00;97064.53;5070967;27;103218;-60
2022/07/13 00:55:06;;;;;;;1.50;1.33;;;;;;;15.91;100.00;97076.84;5053051;27;102146;-60
2022/07/13 00:57:35;;;;;;;2.20;1.47;;;;;;;15.82;100.00;97077.66;5071545;27;102319;-61
2022/07/13 01:00:07;;;;;;;2.07;1.40;;;;;;;16.34;100.00;97075.50;5052446;27;107298;-60
2022/07/13 01:02:36;;;;;;;2.40;1.40;;;;;;;16.18;100.00;97068.56;5052649;27;102558;-61
2022/07/13 01:05:03;;;;;;;2.77;1.37;;;;;;;16.29;100.00;97070.16;5052703;27;105824;-60
2022/07/13 01:07:32;;;;;;;1.20;1.20;;;;;;;16.43;100.00;97074.75;5052177;27;105642;-61
2022/07/13 01:10:00;;;;;;;1.60;1.27;;;;;;;16.20;100.00;97067.22;5074752;27;101842;-61
2022/07/13 01:12:28;;;;;;;1.33;1.20;;;;;;;15.98;100.00;97063.19;5051279;27;105823;-60
2022/07/13 01:14:56;;;;;;;2.27;1.67;;;;;;;15.95;100.00;97058.34;5070824;27;101855;-60
2022/07/13 01:17:26;;;;;;;1.90;1.40;;;;;;;15.94;100.00;97057.56;5071285;27;102435;-61
2022/07/13 01:19:54;;;;;;;1.57;1.47;;;;;;;16.24;100.00;97062.13;5052040;27;105286;-61
2022/07/13 01:22:25;;;;;;;1.30;1.20;;;;;;;15.82;100.00;97069.59;5052387;27;101902;-61
2022/07/13 01:24:55;;;;;;;2.43;1.50;;;;;;;15.97;100.00;97066.94;5052393;27;104841;-61
2022/07/13 01:27:23;;;;;;;1.40;1.30;;;;;;;16.06;100.00;97062.63;5070503;27;102875;-61
2022/07/13 01:29:51;;;;;;;1.57;1.50;;;;;;;16.30;100.00;97067.19;5052494;27;102064;-61
2022/07/13 01:32:18;;;;;;;2.27;1.37;;;;;;;16.49;100.00;97067.47;5073567;27;102255;-61
2022/07/13 01:34:46;;;;;;;1.30;1.30;;;;;;;16.39;100.00;97057.56;5052375;27;101904;-60
2022/07/13 01:37:13;;;;;;;1.47;1.37;;;;;;;16.38;100.00;97065.84;5051549;27;105669;-61
2022/07/13 01:39:40;;;;;;;1.20;1.20;;;;;;;16.27;100.00;97058.88;5070390;27;103151;-61
2022/07/13 01:42:09;;;;;;;1.50;1.40;;;;;;;16.07;100.00;97058.91;5070614;27;101910;-61
2022/07/13 01:44:36;;;;;;;1.27;1.20;;;;;;;16.10;100.00;97069.09;5052406;27;105357;-61
2022/07/13 01:47:08;;;;;;;1.87;1.30;;;;;;;16.32;100.00;97069.63;5051333;27;105548;-61
2022/07/13 01:49:37;;;;;;;1.43;1.30;;;;;;;16.57;100.00;97070.41;5052482;27;101893;-61
2022/07/13 01:52:05;;;;;;;1.60;1.50;;;;;;;16.26;100.00;97068.81;5070695;27;102298;-61
2022/07/13 01:54:32;;;;;;;1.50;1.40;;;;;;;16.23;100.00;97065.84;5055236;27;105655;-61
2022/07/13 01:56:59;;;;;;;1.43;1.10;;;;;;;16.04;100.00;97070.97;5051798;27;105578;-61
2022/07/13 01:59:28;;;;;;;1.50;1.20;;;;;;;15.84;100.00;97064.78;5051583;27;105728;-61
2022/07/13 02:01:55;;;;;;;1.93;1.40;;;;;;;15.93;100.00;97058.63;5052043;27;101883;-61
2022/07/13 02:04:22;;;;;;;1.70;1.30;;;;;;;16.25;100.00;97061.81;5070320;27;102815;-61
2022/07/13 02:06:50;;;;;;;1.40;1.30;;;;;;;16.42;100.00;97062.41;5051371;27;105658;-61
2022/07/13 02:09:20;;;;;;;1.60;1.50;;;;;;;16.21;100.00;97055.41;5052097;27;102007;-61
2022/07/13 02:11:48;;;;;;;1.37;1.27;;;;;;;15.98;100.00;97049.78;5051752;27;105178;-61
2022/07/13 02:14:15;;;;;;;1.37;1.27;;;;;;;15.58;100.00;97060.47;5051175;27;105872;-61
2022/07/13 02:16:43;;;;;;;1.50;1.40;;;;;;;15.37;100.00;97059.59;5055213;27;101945;-61
2022/07/13 02:19:11;;;;;;;1.63;1.50;;;;;;;15.35;100.00;97067.09;5051093;27;105726;-61
2022/07/13 02:21:38;;;;;;;1.93;1.43;;;;;;;15.59;100.00;97064.75;5051766;27;101874;-61
2022/07/13 02:24:06;;;;;;;2.27;1.50;;;;;;;15.72;100.00;97059.69;5051706;27;103702;-61
2022/07/13 02:26:33;;;;;;;1.80;1.50;;;;;;;16.09;100.00;97064.78;5069550;27;102862;-61
2022/07/13 02:29:00;;;;;;;1.47;1.37;;;;;;;16.07;100.00;97064.28;5051787;27;101786;-61
2022/07/13 02:31:27;;;;;;;2.30;1.47;;;;;;;16.35;100.00;97069.09;5051795;27;105230;-61
2022/07/13 02:33:56;;;;;;;1.93;1.33;;;;;;;16.17;100.00;97069.63;5051092;27;106243;-61
2022/07/13 02:36:23;;;;;;;1.90;1.50;;;;;;;15.62;100.00;97073.06;5051728;27;101969;-61
2022/07/13 02:38:50;;;;;;;1.47;1.30;;;;;;;15.40;100.00;97068.97;5054888;27;105281;-61
2022/07/13 02:41:18;;;;;;;3.10;1.50;;;;;;;15.28;100.00;97073.75;5051371;27;101861;-61
2022/07/13 02:43:46;;;;;;;2.33;1.70;;;;;;;15.72;100.00;97075.78;5051495;27;105250;-61
2022/07/13 02:46:13;;;;;;;2.00;1.50;;;;;;;15.84;100.00;97081.69;5050840;27;105514;-61
2022/07/13 02:48:40;;;;;;;2.33;1.47;;;;;;;16.09;100.00;97080.91;5070836;27;101845;-61
2022/07/13 02:51:08;;;;;;;3.63;1.57;;;;;;;16.05;100.00;97077.94;5054919;27;105466;-61
2022/07/13 02:53:36;;;;;;;1.80;1.40;;;;;;;15.87;100.00;97070.41;5053944;27;105703;-61
2022/07/13 02:56:03;;;;;;;2.93;1.60;;;;;;;15.75;100.00;97082.47;5054747;27;101957;-61
2022/07/13 02:58:31;;;;;;;2.70;1.70;;;;;;;15.67;100.00;97080.31;5055002;27;105185;-61
2022/07/13 03:00:59;;;;;;;2.40;1.23;;;;;;;15.96;100.00;97084.91;5057704;27;101877;-60
2022/07/13 03:03:26;;;;;;;1.60;1.50;;;;;;;16.24;100.00;97080.91;5073201;27;102891;-61
2022/07/13 03:05:53;;;;;;;2.00;1.33;;;;;;;16.22;100.00;97069.63;5053885;27;105694;-61
2022/07/13 03:08:23;;;;;;;1.90;1.77;;;;;;;15.98;100.00;97081.97;5054822;27;101870;-61
2022/07/13 03:10:50;;;;;;;1.60;1.50;;;;;;;15.44;100.00;97080.78;5054363;27;105076;-61
2022/07/13 03:13:18;;;;;;;2.03;1.60;;;;;;;15.58;100.00;97088.06;5053384;27;105384;-61
2022/07/13 03:15:46;;;;;;;3.70;1.43;;;;;;;15.80;100.00;97083.28;5054706;27;101916;-61
2022/07/13 03:18:13;;;;;;;2.17;1.40;;;;;;;15.85;100.00;97090.50;5054636;27;105671;-61
2022/07/13 03:20:40;;;;;;;1.83;1.73;;;;;;;16.03;100.00;97085.44;5057246;27;105862;-61
2022/07/13 03:23:08;;;;;;;1.77;1.67;;;;;;;15.95;100.00;97090.53;5054364;27;105195;-61
2022/07/13 03:25:37;;;;;;;2.17;1.60;;;;;;;15.66;100.00;97084.06;5053672;27;105513;-61
2022/07/13 03:28:05;;;;;;;3.03;1.67;;;;;;;15.82;100.00;97091.06;5054519;27;101986;-61
2022/07/13 03:30:32;;;;;;;2.07;1.63;;;;;;;15.89;100.00;97088.91;5054396;27;105529;-61
2022/07/13 03:33:00;;;;;;;1.70;1.60;;;;;;;15.85;100.00;97095.88;5053637;27;105643;-61
2022/07/13 03:35:27;;;;;;;2.57;1.40;;;;;;;15.84;100.00;97086.22;5054004;27;101840;-61
2022/07/13 03:37:54;;;;;;;2.03;1.50;;;;;;;16.04;100.00;97097.00;5053808;27;103722;-61
2022/07/13 03:40:27;;;;;;;2.57;1.60;;;;;;;15.70;100.00;97091.28;5053090;27;105875;-61
2022/07/13 03:42:56;;;;;;;2.53;1.53;;;;;;;15.58;100.00;97096.09;5057197;27;101835;-61
2022/07/13 03:45:24;;;;;;;2.40;1.53;;;;;;;15.39;100.00;97094.16;5052799;27;105918;-61
2022/07/13 03:47:51;;;;;;;1.83;1.50;;;;;;;15.29;100.00;97100.28;5053395;27;101846;-60
2022/07/13 03:50:20;;;;;;;2.33;1.53;;;;;;;15.53;100.00;97095.31;5053223;27;107134;-61
2022/07/13 03:52:47;;;;;;;2.07;1.60;;;;;;;15.61;100.00;97092.09;5052707;27;105515;-61
2022/07/13 03:55:15;;;;;;;1.70;1.60;;;;;;;15.34;100.00;97088.78;5053258;27;102116;-61
2022/07/13 03:57:43;;;;;;;3.90;1.80;;;;;;;15.31;100.00;97091.97;5053207;27;105161;-61
2022/07/13 04:00:13;;;;;;;2.00;1.87;;;;;;;15.12;100.00;97101.53;5052620;27;105340;-61
2022/07/13 04:02:47;;;;;;;2.07;1.40;;;;;;;15.12;100.00;97105.03;5053631;27;101833;-61
2022/07/13 04:05:15;;;;;;;2.07;1.60;;;;;;;15.52;100.00;97101.72;5074586;27;102294;-61
2022/07/13 04:07:45;;;;;;;2.40;1.77;;;;;;;15.55;100.00;97103.88;5053238;27;102117;-61
2022/07/13 04:10:12;;;;;;;2.07;1.50;;;;;;;15.53;100.00;97106.03;5052846;27;104757;-61
2022/07/13 04:12:42;;;;;;;2.13;1.70;;;;;;;15.61;100.00;97109.00;5051878;27;105001;-61
2022/07/13 04:15:13;;;;;;;1.80;1.70;;;;;;;15.96;100.00;97101.00;5053474;27;101973;-61
2022/07/13 04:17:42;;;;;;;2.33;1.70;;;;;;;16.09;100.00;97094.31;5052635;27;104898;-61
2022/07/13 04:20:12;;;;;;;1.70;1.60;;;;;;;16.10;100.00;97090.56;5052542;27;105698;-61
2022/07/13 04:22:42;;;;;;;2.63;1.77;;;;;;;16.15;100.00;97091.38;5052969;27;101936;-61
2022/07/13 04:25:10;;;;;;;1.93;1.47;;;;;;;16.35;100.00;97090.56;5052990;27;104821;-61
2022/07/13 04:27:37;;;;;;;3.47;1.70;;;;;;;16.40;100.00;97085.22;5056096;27;105128;-61
2022/07/13 04:30:06;;;;;;;1.70;1.60;;;;;;;16.36;100.00;97079.53;5053564;27;104892;-61
2022/07/13 04:32:36;;;;;;;1.60;1.50;;;;;;;16.49;100.00;97070.16;5052452;27;105203;-61
2022/07/13 04:35:04;;;;;;;2.73;1.80;;;;;;;16.69;100.00;97057.53;5053283;27;101876;-61
2022/07/13 04:37:36;;;;;;;2.20;1.63;;;;;;;16.62;100.00;97061.56;5053385;27;105288;-61
2022/07/13 04:40:05;;;;;;;1.50;1.40;;;;;;;16.79;100.00;97057.47;5052547;27;104518;-61
2022/07/13 04:42:35;;;;;;;2.00;1.70;;;;;;;16.77;100.00;97064.19;5052902;27;101889;-61
2022/07/13 04:45:02;;;;;;;1.70;1.60;;;;;;;16.64;100.00;97062.91;5053297;27;104941;-61
2022/07/13 04:47:29;;;;;;;1.50;1.40;;;;;;;16.67;100.00;97059.66;5070772;27;102629;-61
2022/07/13 04:49:59;;;;;;;1.47;1.43;;;;;;;16.84;100.00;97064.72;5056554;27;101979;-61
2022/07/13 04:52:26;;;;;;;1.63;1.53;;;;;;;16.91;100.00;97063.38;5052395;27;105843;-61
2022/07/13 04:54:53;;;;;;;2.73;1.30;;;;;;;17.02;100.00;97056.06;5052832;27;101865;-61
2022/07/13 04:57:21;;;;;;;3.20;1.50;;;;;;;17.19;100.00;97054.66;5052890;27;105689;-61
2022/07/13 04:59:48;;;;;;;1.80;1.70;;;;;;;17.22;100.00;97054.09;5052163;27;106000;-61
2022/07/13 05:02:15;;;;;;;2.50;2.07;;;;;;;17.20;100.00;97052.75;5052817;27;102053;-61
2022/07/13 05:04:42;;;;;;;1.70;1.60;;;;;;;17.33;100.00;97052.16;5052764;27;105122;-61
2022/07/13 05:07:11;;;;;;;1.63;1.53;;;;;;;17.45;100.00;97055.34;5052214;27;105548;-61
2022/07/13 05:09:39;;;;;;;5.43;2.10;;;;;;;17.47;100.00;97050.50;5055933;27;101997;-61
2022/07/13 05:12:06;;;;;;;2.30;1.60;;;;;;;17.53;100.00;97054.75;5050677;27;105763;-61
2022/07/13 05:14:35;;;;;;;1.70;1.57;;;;;;;17.81;100.00;97048.66;5052561;27;102020;-61
2022/07/13 05:17:03;;;;;;;2.27;1.70;;;;;;;17.93;100.00;97051.81;5052538;27;104747;-61
2022/07/13 05:19:31;;;;;;;3.33;2.03;;;;;;;18.01;100.00;97046.66;5051921;27;105512;-61
2022/07/13 05:21:58;;;;;;;2.70;1.73;;;;;;;18.09;100.00;97048.72;5051795;27;101819;-61
2022/07/13 05:24:29;;;;;;;3.50;1.80;;;;;;;18.12;100.00;97040.09;5052356;27;105317;-61
2022/07/13 05:26:57;;;;;;;3.67;1.77;;;;;;;18.24;100.00;97047.78;5052020;27;105859;-61
2022/07/13 05:29:25;;;;;;;2.97;1.73;;;;;;;18.36;100.00;97032.13;5052624;27;101854;-61
2022/07/13 05:31:52;;;;;;;2.17;1.70;;;;;;;18.61;100.00;97029.97;5055658;27;105677;-61
2022/07/13 05:34:19;;;;;;;2.17;1.60;;;;;;;18.77;100.00;97031.41;5052322;27;101933;-61
2022/07/13 05:36:47;;;;;;;3.77;1.93;;;;;;;18.78;100.00;97027.63;5052262;27;104458;-61
2022/07/13 05:39:15;;;;;;;1.83;1.33;;;;;;;18.85;100.00;97024.59;5051741;27;105495;-61
2022/07/13 05:41:44;;;;;;;2.20;1.67;;;;;;;19.05;100.00;97027.03;5052144;27;102026;-61
2022/07/13 05:44:11;;;;;;;1.90;1.70;;;;;;;18.98;100.00;97027.41;5052156;27;105179;-61
2022/07/13 05:46:38;;;;;;;2.27;1.40;;;;;;;19.25;100.00;97026.81;5051475;27;105825;-61
2022/07/13 05:49:07;;;;;;;2.63;1.60;;;;;;;19.43;100.00;97029.53;5052245;27;101809;-61
2022/07/13 05:51:34;;;;;;;1.40;1.30;;;;;;;19.41;100.00;97022.84;5051895;27;106106;-61
2022/07/13 05:54:02;;;;;;;2.17;1.30;;;;;;;19.35;100.00;97024.00;5055094;27;104986;-61
2022/07/13 05:56:30;;;;;;;3.53;1.40;;;;;;;19.49;100.00;97022.16;5052129;27;105456;-61
2022/07/13 05:58:58;;;;;;;1.60;1.40;;;;;;;19.76;100.00;97025.00;5070047;27;102529;-61
2022/07/13 06:01:26;;;;;;;2.77;1.17;;;;;;;19.81;100.00;97019.53;5070550;27;101784;-61
2022/07/13 06:03:53;;;;;;;1.63;1.53;;;;;;;19.88;100.00;97017.25;5070274;27;102694;-61
2022/07/13 06:06:20;;;;;;;1.67;1.50;;;;;;;19.74;100.00;97011.03;5069068;27;104214;-61
2022/07/13 06:08:47;;;;;;;4.50;1.60;;;;;;;19.67;100.00;96997.09;5070551;27;101661;-61
2022/07/13 06:11:14;;;;;;;4.90;1.47;;;;;;;19.77;100.00;97005.03;5069727;27;102333;-61
2022/07/13 06:13:41;;;;;;;2.80;1.20;;;;;;;19.96;100.00;97000.41;5050768;27;105121;-61
2022/07/13 06:16:11;;;;;;;1.63;1.20;;;;;;;20.01;100.00;96990.31;5073774;27;101876;-61
2022/07/13 06:18:39;;;;;;;1.50;1.20;;;;;;;19.83;100.00;96991.16;5069336;27;103110;-61
2022/07/13 06:21:06;;;;;;;1.10;1.10;;;;;;;20.30;100.00;96995.53;5070428;27;101843;-61
2022/07/13 06:23:33;;;;;;;1.73;1.13;;;;;;;20.64;100.00;96993.28;5072466;27;102626;-61
2022/07/13 06:26:00;;;;;;;1.73;1.10;;;;;;;20.75;100.00;96986.59;5073335;27;103209;-61
2022/07/13 06:28:27;;;;;;;2.30;1.30;;;;;;;20.97;100.00;96986.72;5073857;27;101709;-61
2022/07/13 06:30:55;;;;;;;1.83;1.20;;;;;;;21.26;100.00;96982.56;5073228;27;102319;-61
2022/07/13 06:33:23;;;;;;;1.30;1.20;;;;;;;21.39;100.00;96987.16;5073111;27;103191;-61
2022/07/13 06:35:51;;;;;;;1.53;1.30;;;;;;;21.33;100.00;96988.38;5073688;27;102018;-61
2022/07/13 06:38:18;;;;;;;1.90;1.40;;;;;;;21.44;100.00;96980.84;5076365;27;102628;-61
2022/07/13 06:40:49;;;;;;;4.73;1.60;;;;;;;21.19;100.00;96971.38;5073353;27;101914;-61
2022/07/13 06:43:16;;;;;;;3.07;1.50;;;;;;;21.54;100.00;96973.31;5073698;27;102663;-61
2022/07/13 06:45:44;;;;;;;2.77;1.33;;;;;;;21.58;100.00;96976.19;5072812;27;102552;-61
2022/07/13 06:48:11;;;;;;;3.37;1.47;;;;;;;21.44;100.00;96968.13;5054865;27;101897;-61
2022/07/13 06:50:39;;;;;;;2.70;1.10;;;;;;;21.73;100.00;96959.59;5073281;27;102309;-61
2022/07/13 06:53:06;;;;;;;1.50;1.27;;;;;;;21.75;100.00;96957.41;5054305;27;105790;-61
2022/07/13 06:55:34;;;;;;;6.90;1.37;;;;;;;21.98;100.00;96961.72;5073301;27;101851;-61
2022/07/13 06:58:02;;;;;;;1.57;1.20;;;;;;;21.82;100.00;96957.78;5073277;27;102851;-61
2022/07/13 07:00:29;;;;;;;1.53;1.33;;;;;;;21.92;100.00;96954.81;5057407;27;105756;-61
2022/07/13 07:02:57;;;;;;;0.93;0.93;;;;;;;22.33;100.00;96963.50;5072802;27;102976;-61
2022/07/13 07:05:24;;;;;;;1.57;1.30;;;;;;;22.38;100.00;96955.25;5072292;27;102983;-61
2022/07/13 07:07:53;;;;;;;2.63;0.93;;;;;;;22.34;100.00;96957.00;5054643;27;102263;-61
2022/07/13 07:10:21;;;;;;;2.10;1.27;;;;;;;22.17;100.00;96962.34;5054719;27;104784;-61
2022/07/13 07:12:48;;;;;;;1.13;1.00;;;;;;;22.54;100.00;96964.59;5053149;27;105731;-61
2022/07/13 07:15:15;;;;;;;2.07;0.93;;;;;;;22.33;100.00;96966.22;5054107;27;102133;-61
2022/07/13 07:17:46;;;;;;;3.37;1.20;;;;;;;22.45;100.00;96970.00;5073101;27;102544;-61
2022/07/13 07:20:14;;;;;;;1.10;0.97;;;;;;;22.16;100.00;96971.53;5057127;27;105416;-61
2022/07/13 07:22:42;;;;;;;1.00;1.00;;;;;;;22.09;100.00;96965.78;5054173;27;105165;-61
2022/07/13 07:25:11;;;;;;;2.13;1.13;;;;;;;22.39;100.00;96962.28;5053725;27;105210;-61
2022/07/13 07:27:40;;;;;;;0.80;0.80;;;;;;;22.40;100.00;96961.97;5054347;27;101901;-62
2022/07/13 07:30:08;;;;;;;3.60;0.90;;;;;;;22.62;100.00;96958.44;5054390;27;105552;-62
2022/07/13 07:32:36;;;;;;;1.20;1.10;;;;;;;22.70;100.00;96961.19;5053800;27;105573;-61
2022/07/13 07:35:03;;;;;;;1.20;1.10;;;;;;;22.97;100.00;96957.44;5053380;27;101969;-61
2022/07/13 07:37:30;;;;;;;2.13;0.93;;;;;;;22.86;100.00;96961.56;5054106;27;105703;-61
2022/07/13 07:39:57;;;;;;;1.33;1.00;;;;;;;22.81;100.00;96965.22;5053579;27;105907;-61
2022/07/13 07:42:26;;;;;;;0.97;0.97;;;;;;;23.22;100.00;96951.31;5057263;27;101906;-61
2022/07/13 07:44:53;;;;;;;1.40;1.30;;;;;;;23.17;100.00;96952.25;5053452;27;104223;-61
2022/07/13 07:47:22;;;;;;;0.83;0.83;;;;;;;23.36;100.00;96951.94;5054189;27;102047;-61
2022/07/13 07:49:49;;;;;;;1.00;0.80;;;;;;;23.28;98.30;96947.31;5053882;27;105161;-61
2022/07/13 07:52:16;;;;;;;1.00;0.90;;;;;;;23.32;94.94;96951.78;5053333;27;103851;-61
2022/07/13 07:54:42;;;;;;;2.27;0.80;;;;;;;23.55;92.42;96963.31;5053717;27;101754;-61
2022/07/13 07:57:10;;;;;;;2.00;0.93;;;;;;;23.34;86.54;96962.34;5053941;27;104964;-61
2022/07/13 07:59:38;;;;;;;0.77;0.77;;;;;;;23.96;93.91;96963.66;5053150;27;105670;-61
2022/07/13 08:02:05;;;;;;;2.00;0.70;;;;;;;23.99;93.02;96965.75;5053968;27;102028;-61
2022/07/13 08:04:32;;;;;;;1.13;0.97;;;;;;;24.24;91.67;96973.06;5056379;27;104900;-61
2022/07/13 08:06:59;;;;;;;1.43;0.90;;;;;;;24.36;82.19;96973.97;5053768;27;101885;-61
2022/07/13 08:09:27;;;;;;;1.30;0.70;;;;;;;24.27;81.13;96980.56;5053679;27;105572;-61
2022/07/13 08:11:54;;;;;;;1.20;0.97;;;;;;;24.22;76.88;96978.00;5052709;27;105516;-61
2022/07/13 08:14:22;;;;;;;1.13;0.80;;;;;;;24.10;88.60;96980.59;5072112;27;101826;-61
2022/07/13 08:16:51;;;;;;;0.70;0.70;;;;;;;24.11;83.76;96991.16;5072041;27;102508;-61
2022/07/13 08:19:18;;;;;;;0.80;0.80;;;;;;;24.64;85.54;96996.16;5071581;27;102824;-61
2022/07/13 08:21:45;;;;;;;1.70;0.90;;;;;;;24.63;79.43;96992.63;5072046;27;101705;-61
2022/07/13 08:24:12;;;;;;;1.87;0.90;;;;;;;24.94;72.94;96989.63;5072196;27;102619;-61
2022/07/13 08:26:40;;;;;;;0.77;0.77;;;;;;;25.10;72.45;96988.78;5075069;27;102489;-61
2022/07/13 08:29:07;;;;;;;1.53;1.10;;;;;;;25.12;70.77;96986.50;5072124;27;102811;-61
2022/07/13 08:31:34;;;;;;;1.00;0.90;;;;;;;25.24;73.10;96975.72;5052530;27;105420;-61
2022/07/13 08:39:31;;;;;;;2.70;1.03;;;;;;;25.28;71.63;96984.06;5071201;27;102996;-61
2022/07/13 08:41:59;;;;;;;1.43;0.80;;;;;;;25.44;74.26;96977.69;5071607;27;101788;-61
2022/07/13 08:44:27;;;;;;;0.70;0.70;;;;;;;25.64;75.11;96976.13;5071721;27;102852;-61
2022/07/13 08:46:54;;;;;;;1.20;0.70;;;;;;;25.42;57.08;96984.59;5070856;27;102932;-61
2022/07/13 08:49:25;;;;;;;1.53;0.80;;;;;;;25.23;64.24;96971.38;5075118;27;101930;-61
2022/07/13 08:51:52;;;;;;;0.93;0.60;;;;;;;25.33;67.42;96975.72;5070618;27;102821;-61
2022/07/13 08:54:20;;;;;;;1.97;1.13;;;;;;;25.58;67.98;96972.81;5053029;27;101940;-61
2022/07/13 08:56:47;;;;;;;2.77;0.90;;;;;;;25.80;65.28;96968.94;5053064;27;105819;-61
2022/07/13 08:59:14;;;;;;;1.23;0.93;;;;;;;25.67;65.04;96973.53;5070878;27;103446;-61
2022/07/13 09:01:41;;;;;;;0.90;0.90;;;;;;;25.86;65.92;96978.50;5071077;27;101792;-61
2022/07/13 09:04:12;;;;;;;0.80;0.80;;;;;;;25.73;60.88;96976.84;5071048;27;102494;-61
2022/07/13 09:06:46;;;;;;;2.17;0.90;;;;;;;26.22;62.90;96967.78;5070714;27;102571;-61
2022/07/13 09:09:31;;;;;;;0.90;0.90;;;;;;;26.82;73.39;96978.88;5071395;27;101704;-61
2022/07/13 09:12:11;;;;;;;0.70;0.70;;;;;;;27.41;67.02;96969.09;5071894;27;102878;-61
2022/07/13 09:14:38;;;;;;;0.73;0.70;;;;;;;27.07;56.86;96964.88;5071533;27;101858;-61
2022/07/13 09:17:07;;;;;;;1.80;0.80;;;;;;;27.20;56.24;96971.19;5071875;27;101622;-61
2022/07/13 09:19:39;;;;;;;1.20;0.90;;;;;;;26.81;51.99;96972.59;5051954;27;105123;-61
2022/07/13 09:22:12;;;;;;;1.03;0.93;;;;;;;27.12;64.08;96972.03;5070996;27;101696;-61
2022/07/13 09:24:43;;;;;;;0.70;0.70;;;;;;;27.46;58.50;96968.88;5052643;27;106029;-61
2022/07/13 09:27:11;;;;;;;0.83;0.83;;;;;;;27.16;52.58;96967.50;5051951;27;105041;-61
2022/07/13 09:29:38;;;;;;;0.83;0.83;;;;;;;26.63;51.94;96965.75;5052517;27;102024;-61
2022/07/13 09:32:11;;;;;;;1.43;0.80;;;;;;;26.69;50.88;96969.09;5055097;27;105876;-61
2022/07/13 09:34:50;;;;;;;0.80;0.80;;;;;;;26.74;55.17;96971.56;5052509;27;101880;-61
2022/07/13 09:37:22;;;;;;;0.80;0.80;;;;;;;26.54;54.62;96975.94;5052490;27;105343;-61
2022/07/13 09:40:00;;;;;;;0.70;0.70;;;;;;;26.77;51.65;96977.16;5051829;27;105486;-61
2022/07/13 09:42:28;;;;;;;1.60;0.90;;;;;;;26.89;52.54;96968.97;5051982;27;102188;-61
2022/07/13 09:47:43;;;;;;;0.60;0.60;;;;;;;27.27;48.55;96979.59;5070208;27;102213;-61
2022/07/13 09:50:10;;;;;;;1.13;0.80;;;;;;;27.02;50.74;96978.75;5052310;27;101822;-61
2022/07/13 09:52:40;;;;;;;2.83;0.93;;;;;;;27.33;49.10;96970.81;5070469;27;102369;-61
2022/07/13 09:55:12;;;;;;;0.80;0.80;;;;;;;28.16;56.06;96969.03;5073494;27;103021;-61
2022/07/13 09:57:48;;;;;;;2.83;1.00;;;;;;;26.92;50.18;96968.28;5071634;27;102542;-61
2022/07/13 10:00:17;;;;;;;3.33;1.00;;;;;;;28.01;51.85;96969.75;5073650;27;102503;-61
2022/07/13 10:02:47;;;;;;;2.93;0.80;;;;;;;28.16;45.05;96965.50;5073962;27;101882;-61
2022/07/13 10:05:16;;;;;;;3.40;0.90;;;;;;;28.30;53.02;96965.88;5073725;27;102267;-61
2022/07/13 10:07:46;;;;;;;0.97;0.70;;;;;;;29.14;46.77;96968.09;5073744;27;102625;-61
2022/07/13 10:10:14;;;;;;;0.87;0.60;;;;;;;29.76;42.37;96971.53;5074100;27;101927;-61
2022/07/13 10:12:42;;;;;;;0.93;0.50;;;;;;;30.05;41.06;96975.66;5073521;27;102870;-61
2022/07/13 10:15:11;;;;;;;1.57;0.63;;;;;;;29.76;39.22;96974.28;5073292;27;102500;-61
2022/07/13 10:17:39;;;;;;;0.70;0.53;;;;;;;29.59;39.82;96976.66;5077561;27;101861;-61
2022/07/13 10:20:11;;;;;;;2.50;0.60;;;;;;;28.79;37.47;96978.16;5073219;27;102646;-61
2022/07/13 10:22:41;;;;;;;2.47;0.70;;;;;;;28.92;36.81;96976.91;5073507;27;101757;-61
2022/07/13 10:25:11;;;;;;;0.65;0.65;;;;;;;29.77;38.16;96977.81;5071890;27;102530;-61
2022/07/13 10:27:41;;;;;;;0.60;0.60;;;;;;;30.30;41.81;96982.50;5072020;27;102676;-61
2022/07/13 10:30:10;;;;;;;0.70;0.70;;;;;;;30.78;44.39;96979.13;5072195;27;102062;-61
2022/07/13 10:32:39;;;;;;;1.30;0.60;;;;;;;30.63;36.93;96983.50;5072401;27;102557;-61
2022/07/13 10:35:09;;;;;;;1.13;0.68;;;;;;;30.67;36.91;96978.13;5053319;27;105123;-61
2022/07/13 10:38:15;;;;;;;1.55;0.60;;;;;;;30.20;37.69;96980.31;5069980;27;101746;-61
2022/07/13 10:40:44;;;;;;;0.60;0.60;;;;;;;30.73;41.44;96965.69;5055362;27;105747;-61
2022/07/13 10:43:14;;;;;;;0.65;0.65;;;;;;;31.32;36.23;96961.19;5071988;27;102041;-61
2022/07/13 10:45:43;;;;;;;0.77;0.77;;;;;;;31.42;35.24;96968.00;5072045;27;102555;-61
2022/07/13 10:48:40;;;;;;;0.80;0.60;;;;;;;28.51;36.16;96966.47;5071588;27;102552;-61
2022/07/13 10:51:20;;;;;;;0.50;0.50;;;;;;;30.38;32.75;96971.28;5052626;27;102095;-61
2022/07/13 10:54:08;;;;;;;0.75;0.50;;;;;;;30.83;39.25;96973.31;5053660;27;105639;-61
2022/07/13 10:56:37;;;;;;;1.52;0.50;;;;;;;31.45;35.87;96968.06;5068683;27;102709;-61
2022/07/13 10:59:04;;;;;;;0.68;0.50;;;;;;;31.87;36.21;96963.19;5071933;27;101916;-61
2022/07/13 11:01:44;;;;;;;0.52;0.50;;;;;;;32.06;36.31;96965.00;5071934;27;102416;-61
2022/07/13 11:04:16;;;;;;;0.40;0.40;;;;;;;31.84;34.48;96963.13;5074454;27;102595;-61
2022/07/13 11:06:43;;;;;;;0.98;0.60;;;;;;;31.75;33.44;96968.13;5053420;27;103518;-61
2022/07/13 11:09:14;;;;;;;0.52;0.52;;;;;;;30.87;36.59;96954.91;5070305;27;102729;-61
2022/07/13 11:11:48;;;;;;;0.50;0.50;;;;;;;31.44;34.07;96965.69;5052727;27;102233;-61
2022/07/13 11:14:47;;;;;;;0.80;0.50;;;;;;;32.08;33.07;96955.19;5069125;27;102953;-61
2022/07/13 11:17:15;;;;;;;1.40;1.10;;;;;;;31.56;31.54;96949.78;5065561;27;102542;-61
2022/07/13 11:20:10;;;;;;;0.57;0.40;;;;;;;31.71;30.46;96950.75;5071444;27;102163;-61
2022/07/13 11:25:39;;;;;;;0.40;0.40;;;;;;;31.64;29.73;96943.19;5069350;27;103095;-61
2022/07/13 11:28:21;;;;;;;0.40;0.40;;;;;;;31.86;31.07;96936.84;5074127;27;101780;-61
2022/07/13 11:30:54;;;;;;;0.40;0.40;;;;;;;31.54;28.11;96935.59;5070327;27;102573;-61
2022/07/13 11:33:21;;;;;;;2.25;0.45;;;;;;;30.97;31.15;96940.56;5071503;27;102344;-61
2022/07/13 11:35:49;;;;;;;2.08;0.40;;;;;;;31.60;28.30;96936.84;5052586;27;105767;-61
2022/07/13 11:38:16;;;;;;;0.30;0.30;;;;;;;32.47;28.30;96922.63;5077975;27;105344;-61